sensor_id;sensor_type;location;lat;lon;timestamp;P1;P2;P0
35654;PMS1003;21773;50.010;19.972;2022-10-26T00:01:40;15.00;15.00;13.00
35654;PMS1003;21773;50.010;19.972;2022-10-26T00:04:43;17.00;14.75;11.25
35654;PMS1003;21773;50.010;19.972;2022-10-26T00:07:48;14.00;12.00;10.00
35654;PMS1003;21773;50.010;19.972;2022-10-26T00:10:52;15.00;14.50;13.00
35654;PMS1003;21773;50.010;19.972;2022-10-26T00:13:59;17.00;15.80;13.80
35654;PMS1003;21773;50.010;19.972;2022-10-26T00:17:03;15.00;15.00;13.75
35654;PMS1003;21773;50.010;19.972;2022-10-26T00:20:06;16.00;15.00;13.00
35654;PMS1003;21773;50.010;19.972;2022-10-26T00:23:12;15.00;13.00;11.75
35654;PMS1003;21773;50.010;19.972;2022-10-26T00:26:15;12.00;11.75;11.00
35654;PMS1003;21773;50.010;19.972;2022-10-26T00:29:19;13.80;12.80;10.80
35654;PMS1003;21773;50.010;19.972;2022-10-26T00:32:22;14.00;14.00;12.60
35654;PMS1003;21773;50.010;19.972;2022-10-26T00:35:25;15.00;15.00;13.00
35654;PMS1003;21773;50.010;19.972;2022-10-26T00:38:48;16.40;16.40;14.40
35654;PMS1003;21773;50.010;19.972;2022-10-26T00:41:52;15.80;15.20;13.20
35654;PMS1003;21773;50.010;19.972;2022-10-26T00:44:57;16.00;16.00;14.00
35654;PMS1003;21773;50.010;19.972;2022-10-26T00:48:09;18.00;16.50;15.00
35654;PMS1003;21773;50.010;19.972;2022-10-26T00:51:19;15.60;15.60;14.20
35654;PMS1003;21773;50.010;19.972;2022-10-26T00:54:28;17.60;16.00;14.60
35654;PMS1003;21773;50.010;19.972;2022-10-26T00:57:32;15.80;14.80;11.80
35654;PMS1003;21773;50.010;19.972;2022-10-26T01:00:38;16.60;15.60;13.60
35654;PMS1003;21773;50.010;19.972;2022-10-26T01:03:43;17.00;16.75;15.00
35654;PMS1003;21773;50.010;19.972;2022-10-26T01:06:47;16.00;15.00;13.00
35654;PMS1003;21773;50.010;19.972;2022-10-26T01:09:53;17.40;16.00;14.00
35654;PMS1003;21773;50.010;19.972;2022-10-26T01:12:57;16.00;15.00;13.00
35654;PMS1003;21773;50.010;19.972;2022-10-26T01:16:08;15.20;14.60;13.00
35654;PMS1003;21773;50.010;19.972;2022-10-26T01:19:29;18.00;16.40;14.00
35654;PMS1003;21773;50.010;19.972;2022-10-26T01:22:56;19.80;17.80;14.00
35654;PMS1003;21773;50.010;19.972;2022-10-26T01:26:11;18.40;17.60;15.60
35654;PMS1003;21773;50.010;19.972;2022-10-26T01:29:28;18.50;17.00;15.00
35654;PMS1003;21773;50.010;19.972;2022-10-26T01:36:28;19.00;18.60;16.00
35654;PMS1003;21773;50.010;19.972;2022-10-26T01:39:39;18.00;17.40;16.00
35654;PMS1003;21773;50.010;19.972;2022-10-26T01:42:50;18.00;16.50;14.50
35654;PMS1003;21773;50.010;19.972;2022-10-26T01:45:56;18.00;17.00;15.00
35654;PMS1003;21773;50.010;19.972;2022-10-26T01:49:02;18.50;16.50;14.00
35654;PMS1003;21773;50.010;19.972;2022-10-26T01:52:11;17.25;15.25;13.00
35654;PMS1003;21773;50.010;19.972;2022-10-26T01:58:57;16.00;15.00;13.50
35654;PMS1003;21773;50.010;19.972;2022-10-26T02:02:22;15.00;14.00;14.00
35654;PMS1003;21773;50.010;19.972;2022-10-26T02:05:56;18.40;14.40;12.00
35654;PMS1003;21773;50.010;19.972;2022-10-26T02:09:11;18.00;16.60;15.40
35654;PMS1003;21773;50.010;19.972;2022-10-26T02:12:25;14.40;13.00;11.60
35654;PMS1003;21773;50.010;19.972;2022-10-26T02:15:36;16.40;14.40;13.00
35654;PMS1003;21773;50.010;19.972;2022-10-26T02:18:48;13.60;12.60;11.00
35654;PMS1003;21773;50.010;19.972;2022-10-26T02:21:58;16.60;14.60;13.60
35654;PMS1003;21773;50.010;19.972;2022-10-26T02:25:11;19.00;15.75;13.50
35654;PMS1003;21773;50.010;19.972;2022-10-26T02:28:24;14.00;13.00;11.00
35654;PMS1003;21773;50.010;19.972;2022-10-26T02:31:32;14.00;13.80;12.20
35654;PMS1003;21773;50.010;19.972;2022-10-26T02:34:38;15.75;14.75;12.75
35654;PMS1003;21773;50.010;19.972;2022-10-26T02:37:46;16.00;15.00;13.00
35654;PMS1003;21773;50.010;19.972;2022-10-26T02:40:54;14.00;14.00;12.00
35654;PMS1003;21773;50.010;19.972;2022-10-26T02:44:01;14.60;14.60;14.00
35654;PMS1003;21773;50.010;19.972;2022-10-26T02:47:10;13.60;11.60;10.00
35654;PMS1003;21773;50.010;19.972;2022-10-26T02:50:14;15.00;13.60;12.00
35654;PMS1003;21773;50.010;19.972;2022-10-26T02:53:21;16.00;14.00;12.00
35654;PMS1003;21773;50.010;19.972;2022-10-26T02:56:33;15.75;14.00;13.00
35654;PMS1003;21773;50.010;19.972;2022-10-26T02:59:42;15.40;14.00;12.00
35654;PMS1003;21773;50.010;19.972;2022-10-26T03:02:50;13.60;13.00;12.00
35654;PMS1003;21773;50.010;19.972;2022-10-26T03:05:56;16.00;15.20;13.00
35654;PMS1003;21773;50.010;19.972;2022-10-26T03:08:59;16.00;16.00;14.00
35654;PMS1003;21773;50.010;19.972;2022-10-26T03:12:04;15.60;13.80;12.00
35654;PMS1003;21773;50.010;19.972;2022-10-26T03:15:08;16.00;14.80;13.00
35654;PMS1003;21773;50.010;19.972;2022-10-26T03:18:11;14.50;14.00;13.00
35654;PMS1003;21773;50.010;19.972;2022-10-26T03:21:15;15.00;13.25;12.00
35654;PMS1003;21773;50.010;19.972;2022-10-26T03:24:18;15.00;13.20;12.20
35654;PMS1003;21773;50.010;19.972;2022-10-26T03:27:23;15.60;15.00;14.00
35654;PMS1003;21773;50.010;19.972;2022-10-26T03:30:28;16.00;15.00;14.00
35654;PMS1003;21773;50.010;19.972;2022-10-26T03:33:32;19.75;16.75;13.75
35654;PMS1003;21773;50.010;19.972;2022-10-26T03:36:35;14.00;14.00;13.00
35654;PMS1003;21773;50.010;19.972;2022-10-26T03:39:38;19.60;17.60;15.00
35654;PMS1003;21773;50.010;19.972;2022-10-26T03:42:43;18.00;17.00;15.00
35654;PMS1003;21773;50.010;19.972;2022-10-26T03:45:47;15.00;14.40;12.40
35654;PMS1003;21773;50.010;19.972;2022-10-26T03:48:50;18.00;17.00;15.00
35654;PMS1003;21773;50.010;19.972;2022-10-26T03:51:53;16.00;15.20;13.00
35654;PMS1003;21773;50.010;19.972;2022-10-26T03:54:57;15.75;15.00;13.00
35654;PMS1003;21773;50.010;19.972;2022-10-26T03:58:01;18.00;16.00;15.00
35654;PMS1003;21773;50.010;19.972;2022-10-26T04:01:05;17.20;16.00;14.00
35654;PMS1003;21773;50.010;19.972;2022-10-26T04:04:09;15.00;14.00;13.00
35654;PMS1003;21773;50.010;19.972;2022-10-26T04:07:13;17.40;15.00;12.80
35654;PMS1003;21773;50.010;19.972;2022-10-26T04:10:16;15.00;14.60;13.00
35654;PMS1003;21773;50.010;19.972;2022-10-26T04:13:21;15.50;15.00;13.50
35654;PMS1003;21773;50.010;19.972;2022-10-26T04:16:24;17.00;16.00;13.25
35654;PMS1003;21773;50.010;19.972;2022-10-26T04:19:33;16.60;14.60;13.00
35654;PMS1003;21773;50.010;19.972;2022-10-26T04:22:37;16.00;16.00;14.00
35654;PMS1003;21773;50.010;19.972;2022-10-26T04:25:40;18.00;16.00;14.00
35654;PMS1003;21773;50.010;19.972;2022-10-26T04:28:46;18.60;17.00;15.00
35654;PMS1003;21773;50.010;19.972;2022-10-26T04:31:49;17.00;16.40;15.00
35654;PMS1003;21773;50.010;19.972;2022-10-26T04:34:53;20.60;18.60;15.60
35654;PMS1003;21773;50.010;19.972;2022-10-26T04:37:56;18.00;17.20;15.80
35654;PMS1003;21773;50.010;19.972;2022-10-26T04:41:00;18.00;16.00;15.00
35654;PMS1003;21773;50.010;19.972;2022-10-26T04:44:05;17.40;16.00;15.00
35654;PMS1003;21773;50.010;19.972;2022-10-26T04:47:09;18.00;17.00;15.00
35654;PMS1003;21773;50.010;19.972;2022-10-26T04:50:12;19.40;17.60;15.40
35654;PMS1003;21773;50.010;19.972;2022-10-26T04:53:16;19.25;19.00;16.25
35654;PMS1003;21773;50.010;19.972;2022-10-26T04:56:19;21.60;18.00;16.00
35654;PMS1003;21773;50.010;19.972;2022-10-26T04:59:24;21.00;20.50;17.50
35654;PMS1003;21773;50.010;19.972;2022-10-26T05:02:27;19.00;17.60;15.60
35654;PMS1003;21773;50.010;19.972;2022-10-26T05:05:32;20.00;18.00;16.00
35654;PMS1003;21773;50.010;19.972;2022-10-26T05:08:37;15.60;14.00;13.00
35654;PMS1003;21773;50.010;19.972;2022-10-26T05:11:40;16.00;15.00;13.00
35654;PMS1003;21773;50.010;19.972;2022-10-26T05:14:45;17.60;16.00;14.60
35654;PMS1003;21773;50.010;19.972;2022-10-26T05:17:53;16.00;14.40;12.00
35654;PMS1003;21773;50.010;19.972;2022-10-26T05:20:58;16.00;13.00;12.00
35654;PMS1003;21773;50.010;19.972;2022-10-26T05:24:01;15.80;14.40;13.00
35654;PMS1003;21773;50.010;19.972;2022-10-26T05:27:12;16.20;15.80;14.00
35654;PMS1003;21773;50.010;19.972;2022-10-26T05:30:17;15.00;14.00;12.60
35654;PMS1003;21773;50.010;19.972;2022-10-26T05:33:20;13.80;12.80;12.00
35654;PMS1003;21773;50.010;19.972;2022-10-26T05:36:23;15.25;14.00;12.00
35654;PMS1003;21773;50.010;19.972;2022-10-26T05:39:27;14.50;13.50;12.50
35654;PMS1003;21773;50.010;19.972;2022-10-26T05:42:30;12.00;11.40;10.00
35654;PMS1003;21773;50.010;19.972;2022-10-26T05:45:35;13.00;12.80;11.20
35654;PMS1003;21773;50.010;19.972;2022-10-26T05:48:38;14.00;13.00;12.00
35654;PMS1003;21773;50.010;19.972;2022-10-26T05:51:42;14.00;12.00;11.00
35654;PMS1003;21773;50.010;19.972;2022-10-26T05:54:45;13.50;13.00;11.50
35654;PMS1003;21773;50.010;19.972;2022-10-26T05:57:49;15.33;15.00;14.00
35654;PMS1003;21773;50.010;19.972;2022-10-26T06:00:58;17.80;17.40;15.80
35654;PMS1003;21773;50.010;19.972;2022-10-26T06:04:16;14.00;13.60;11.00
35654;PMS1003;21773;50.010;19.972;2022-10-26T06:07:31;15.00;13.33;12.00
35654;PMS1003;21773;50.010;19.972;2022-10-26T06:10:35;15.80;14.80;13.80
35654;PMS1003;21773;50.010;19.972;2022-10-26T06:13:39;18.00;17.00;14.00
35654;PMS1003;21773;50.010;19.972;2022-10-26T06:20:17;17.40;16.00;15.00
35654;PMS1003;21773;50.010;19.972;2022-10-26T06:23:39;17.20;16.40;14.20
35654;PMS1003;21773;50.010;19.972;2022-10-26T06:26:52;17.00;16.00;14.00
35654;PMS1003;21773;50.010;19.972;2022-10-26T06:30:05;16.20;15.80;13.00
35654;PMS1003;21773;50.010;19.972;2022-10-26T06:33:12;17.25;17.00;16.00
35654;PMS1003;21773;50.010;19.972;2022-10-26T06:36:30;17.00;15.80;14.00
35654;PMS1003;21773;50.010;19.972;2022-10-26T06:39:35;15.40;15.40;14.00
35654;PMS1003;21773;50.010;19.972;2022-10-26T06:42:43;16.40;15.00;13.00
35654;PMS1003;21773;50.010;19.972;2022-10-26T06:45:48;16.00;15.00;13.60
35654;PMS1003;21773;50.010;19.972;2022-10-26T06:49:01;15.00;14.40;14.00
35654;PMS1003;21773;50.010;19.972;2022-10-26T06:52:17;13.00;12.25;11.25
35654;PMS1003;21773;50.010;19.972;2022-10-26T06:55:29;13.00;12.00;11.00
35654;PMS1003;21773;50.010;19.972;2022-10-26T06:58:41;12.00;12.00;11.00
35654;PMS1003;21773;50.010;19.972;2022-10-26T07:01:47;13.80;13.40;11.40
35654;PMS1003;21773;50.010;19.972;2022-10-26T07:04:52;10.00;9.25;8.50
35654;PMS1003;21773;50.010;19.972;2022-10-26T07:07:55;13.20;12.00;11.00
35654;PMS1003;21773;50.010;19.972;2022-10-26T07:10:59;11.40;10.40;9.00
35654;PMS1003;21773;50.010;19.972;2022-10-26T07:14:02;12.00;11.00;11.00
35654;PMS1003;21773;50.010;19.972;2022-10-26T07:17:05;10.00;10.00;9.00
35654;PMS1003;21773;50.010;19.972;2022-10-26T07:20:10;9.00;9.00;9.00
35654;PMS1003;21773;50.010;19.972;2022-10-26T07:23:14;10.20;9.00;8.00
35654;PMS1003;21773;50.010;19.972;2022-10-26T07:26:17;9.00;9.00;8.00
35654;PMS1003;21773;50.010;19.972;2022-10-26T07:29:21;10.00;9.00;8.00
35654;PMS1003;21773;50.010;19.972;2022-10-26T07:32:24;8.40;7.20;7.00
35654;PMS1003;21773;50.010;19.972;2022-10-26T07:35:29;8.00;7.00;6.25
35654;PMS1003;21773;50.010;19.972;2022-10-26T07:38:34;7.40;7.00;6.40
35654;PMS1003;21773;50.010;19.972;2022-10-26T07:41:38;5.80;5.00;5.00
35654;PMS1003;21773;50.010;19.972;2022-10-26T07:44:41;7.00;7.00;6.00
35654;PMS1003;21773;50.010;19.972;2022-10-26T07:47:44;7.00;6.00;5.40
35654;PMS1003;21773;50.010;19.972;2022-10-26T07:50:49;7.00;6.60;6.00
35654;PMS1003;21773;50.010;19.972;2022-10-26T07:53:53;7.60;7.00;6.00
35654;PMS1003;21773;50.010;19.972;2022-10-26T07:56:56;7.00;6.00;5.00
35654;PMS1003;21773;50.010;19.972;2022-10-26T08:00:00;6.00;6.00;5.00
35654;PMS1003;21773;50.010;19.972;2022-10-26T08:03:05;6.00;5.60;5.00
35654;PMS1003;21773;50.010;19.972;2022-10-26T08:06:09;7.00;6.00;5.00
35654;PMS1003;21773;50.010;19.972;2022-10-26T08:09:13;6.60;6.00;5.60
35654;PMS1003;21773;50.010;19.972;2022-10-26T08:12:16;6.00;5.00;4.00
35654;PMS1003;21773;50.010;19.972;2022-10-26T08:15:20;6.80;5.00;5.00
35654;PMS1003;21773;50.010;19.972;2022-10-26T08:18:23;6.00;5.00;4.00
35654;PMS1003;21773;50.010;19.972;2022-10-26T08:21:28;3.00;3.00;3.00
35654;PMS1003;21773;50.010;19.972;2022-10-26T08:24:47;4.00;4.00;4.00
35654;PMS1003;21773;50.010;19.972;2022-10-26T08:27:50;3.00;3.00;3.00
35654;PMS1003;21773;50.010;19.972;2022-10-26T08:30:53;3.00;3.00;3.00
35654;PMS1003;21773;50.010;19.972;2022-10-26T08:33:57;3.60;3.00;3.00
35654;PMS1003;21773;50.010;19.972;2022-10-26T08:37:02;3.00;3.00;3.00
35654;PMS1003;21773;50.010;19.972;2022-10-26T08:40:06;5.00;4.00;4.00
35654;PMS1003;21773;50.010;19.972;2022-10-26T08:43:14;4.40;4.40;4.00
35654;PMS1003;21773;50.010;19.972;2022-10-26T08:46:22;5.00;5.00;4.00
35654;PMS1003;21773;50.010;19.972;2022-10-26T08:49:29;5.00;5.00;4.00
35654;PMS1003;21773;50.010;19.972;2022-10-26T08:52:40;6.00;5.00;4.40
35654;PMS1003;21773;50.010;19.972;2022-10-26T08:55:53;4.00;4.00;4.00
35654;PMS1003;21773;50.010;19.972;2022-10-26T08:59:02;5.00;4.80;4.80
35654;PMS1003;21773;50.010;19.972;2022-10-26T09:02:14;6.00;6.00;5.00
35654;PMS1003;21773;50.010;19.972;2022-10-26T09:05:21;6.00;6.00;5.00
35654;PMS1003;21773;50.010;19.972;2022-10-26T09:08:38;5.00;5.00;5.00
35654;PMS1003;21773;50.010;19.972;2022-10-26T09:11:50;7.00;6.00;5.00
35654;PMS1003;21773;50.010;19.972;2022-10-26T09:15:07;5.00;5.00;4.00
35654;PMS1003;21773;50.010;19.972;2022-10-26T09:18:20;5.00;5.00;5.00
35654;PMS1003;21773;50.010;19.972;2022-10-26T09:21:35;6.00;6.00;5.00
35654;PMS1003;21773;50.010;19.972;2022-10-26T09:24:48;5.00;4.00;4.00
35654;PMS1003;21773;50.010;19.972;2022-10-26T09:27:56;5.00;5.00;4.00
35654;PMS1003;21773;50.010;19.972;2022-10-26T09:31:03;4.20;4.20;4.00
35654;PMS1003;21773;50.010;19.972;2022-10-26T09:34:07;5.67;4.67;4.67
35654;PMS1003;21773;50.010;19.972;2022-10-26T09:37:19;4.00;3.00;2.25
35654;PMS1003;21773;50.010;19.972;2022-10-26T09:40:28;4.00;4.00;3.00
35654;PMS1003;21773;50.010;19.972;2022-10-26T09:43:39;3.00;3.00;3.00
35654;PMS1003;21773;50.010;19.972;2022-10-26T09:46:52;3.00;3.00;3.00
35654;PMS1003;21773;50.010;19.972;2022-10-26T09:50:03;3.00;3.00;3.00
35654;PMS1003;21773;50.010;19.972;2022-10-26T09:53:16;5.00;3.75;3.75
35654;PMS1003;21773;50.010;19.972;2022-10-26T09:56:21;4.20;4.00;3.80
35654;PMS1003;21773;50.010;19.972;2022-10-26T09:59:26;3.00;3.00;3.00
35654;PMS1003;21773;50.010;19.972;2022-10-26T10:02:36;3.00;3.00;3.00
35654;PMS1003;21773;50.010;19.972;2022-10-26T10:05:44;3.00;2.00;2.00
35654;PMS1003;21773;50.010;19.972;2022-10-26T10:09:03;3.33;3.00;2.33
35654;PMS1003;21773;50.010;19.972;2022-10-26T10:12:18;3.00;2.00;2.00
35654;PMS1003;21773;50.010;19.972;2022-10-26T10:15:23;3.60;3.60;3.00
35654;PMS1003;21773;50.010;19.972;2022-10-26T10:18:27;2.75;2.75;2.00
35654;PMS1003;21773;50.010;19.972;2022-10-26T10:21:35;3.00;3.00;3.00
35654;PMS1003;21773;50.010;19.972;2022-10-26T10:24:40;1.60;1.60;1.00
35654;PMS1003;21773;50.010;19.972;2022-10-26T10:27:47;2.00;2.00;2.00
35654;PMS1003;21773;50.010;19.972;2022-10-26T10:30:55;2.00;2.00;2.00
35654;PMS1003;21773;50.010;19.972;2022-10-26T10:34:03;2.00;2.00;1.20
35654;PMS1003;21773;50.010;19.972;2022-10-26T10:37:21;2.00;2.00;2.00
35654;PMS1003;21773;50.010;19.972;2022-10-26T10:40:28;2.00;2.00;2.00
35654;PMS1003;21773;50.010;19.972;2022-10-26T10:43:34;3.00;2.00;2.00
35654;PMS1003;21773;50.010;19.972;2022-10-26T10:46:37;3.00;3.00;2.00
35654;PMS1003;21773;50.010;19.972;2022-10-26T10:49:50;2.80;2.80;2.00
35654;PMS1003;21773;50.010;19.972;2022-10-26T10:59:48;1.60;1.60;1.00
35654;PMS1003;21773;50.010;19.972;2022-10-26T11:03:07;1.00;1.00;1.00
35654;PMS1003;21773;50.010;19.972;2022-10-26T11:06:25;1.80;1.80;1.00
35654;PMS1003;21773;50.010;19.972;2022-10-26T11:09:30;2.00;2.00;2.00
35654;PMS1003;21773;50.010;19.972;2022-10-26T11:12:40;3.00;2.00;2.00
35654;PMS1003;21773;50.010;19.972;2022-10-26T11:15:54;1.00;1.00;1.00
35654;PMS1003;21773;50.010;19.972;2022-10-26T11:19:03;1.00;1.00;1.00
35654;PMS1003;21773;50.010;19.972;2022-10-26T11:22:19;1.00;1.00;1.00
35654;PMS1003;21773;50.010;19.972;2022-10-26T11:25:26;1.00;1.00;1.00
35654;PMS1003;21773;50.010;19.972;2022-10-26T11:28:35;2.00;2.00;2.00
35654;PMS1003;21773;50.010;19.972;2022-10-26T11:31:49;1.60;1.60;1.60
35654;PMS1003;21773;50.010;19.972;2022-10-26T11:34:57;1.00;1.00;1.00
35654;PMS1003;21773;50.010;19.972;2022-10-26T11:38:08;2.00;2.00;2.00
35654;PMS1003;21773;50.010;19.972;2022-10-26T11:41:34;1.00;1.00;1.00
35654;PMS1003;21773;50.010;19.972;2022-10-26T11:44:43;2.00;2.00;2.00
35654;PMS1003;21773;50.010;19.972;2022-10-26T11:47:56;2.00;1.00;1.00
35654;PMS1003;21773;50.010;19.972;2022-10-26T11:51:08;2.00;1.00;1.00
35654;PMS1003;21773;50.010;19.972;2022-10-26T11:54:20;2.20;2.00;2.00
35654;PMS1003;21773;50.010;19.972;2022-10-26T11:57:30;3.00;3.00;2.00
35654;PMS1003;21773;50.010;19.972;2022-10-26T12:00:40;3.00;3.00;2.00
35654;PMS1003;21773;50.010;19.972;2022-10-26T12:03:51;2.00;2.00;1.00
35654;PMS1003;21773;50.010;19.972;2022-10-26T12:06:58;3.00;3.00;3.00
35654;PMS1003;21773;50.010;19.972;2022-10-26T12:10:05;3.00;3.00;3.00
35654;PMS1003;21773;50.010;19.972;2022-10-26T12:13:23;3.00;3.00;3.00
35654;PMS1003;21773;50.010;19.972;2022-10-26T12:16:37;3.00;2.00;2.00
35654;PMS1003;21773;50.010;19.972;2022-10-26T12:19:50;2.00;2.00;2.00
35654;PMS1003;21773;50.010;19.972;2022-10-26T12:23:02;3.00;2.00;2.00
35654;PMS1003;21773;50.010;19.972;2022-10-26T12:29:46;4.40;4.00;3.00
35654;PMS1003;21773;50.010;19.972;2022-10-26T12:32:51;3.00;3.00;2.40
35654;PMS1003;21773;50.010;19.972;2022-10-26T12:35:58;3.20;3.20;3.00
35654;PMS1003;21773;50.010;19.972;2022-10-26T12:39:01;3.00;3.00;3.00
35654;PMS1003;21773;50.010;19.972;2022-10-26T12:42:09;2.60;2.60;2.00
35654;PMS1003;21773;50.010;19.972;2022-10-26T12:45:28;3.75;3.00;2.50
35654;PMS1003;21773;50.010;19.972;2022-10-26T12:48:37;3.00;3.00;2.40
35654;PMS1003;21773;50.010;19.972;2022-10-26T12:51:43;2.00;2.00;2.00
35654;PMS1003;21773;50.010;19.972;2022-10-26T12:54:55;2.00;2.00;2.00
35654;PMS1003;21773;50.010;19.972;2022-10-26T12:58:23;3.00;2.00;2.00
35654;PMS1003;21773;50.010;19.972;2022-10-26T13:05:48;2.00;2.00;2.00
35654;PMS1003;21773;50.010;19.972;2022-10-26T13:09:20;2.50;2.50;2.50
35654;PMS1003;21773;50.010;19.972;2022-10-26T13:12:27;2.00;2.00;2.00
35654;PMS1003;21773;50.010;19.972;2022-10-26T13:15:38;2.00;2.00;2.00
35654;PMS1003;21773;50.010;19.972;2022-10-26T13:18:53;3.00;3.00;3.00
35654;PMS1003;21773;50.010;19.972;2022-10-26T13:21:57;3.00;2.00;2.00
35654;PMS1003;21773;50.010;19.972;2022-10-26T13:25:03;2.00;2.00;2.00
35654;PMS1003;21773;50.010;19.972;2022-10-26T13:31:54;2.00;2.00;2.00
35654;PMS1003;21773;50.010;19.972;2022-10-26T13:34:58;2.00;2.00;2.00
35654;PMS1003;21773;50.010;19.972;2022-10-26T13:38:05;4.00;3.40;3.00
35654;PMS1003;21773;50.010;19.972;2022-10-26T13:41:20;2.00;2.00;1.60
35654;PMS1003;21773;50.010;19.972;2022-10-26T13:44:30;2.40;2.00;2.00
35654;PMS1003;21773;50.010;19.972;2022-10-26T13:47:40;2.40;2.00;1.00
35654;PMS1003;21773;50.010;19.972;2022-10-26T13:50:46;2.60;2.60;2.00
35654;PMS1003;21773;50.010;19.972;2022-10-26T13:53:52;2.00;2.00;2.00
35654;PMS1003;21773;50.010;19.972;2022-10-26T13:57:12;1.00;1.00;1.00
35654;PMS1003;21773;50.010;19.972;2022-10-26T14:00:21;3.20;3.00;2.80
35654;PMS1003;21773;50.010;19.972;2022-10-26T14:03:26;3.20;3.20;2.80
35654;PMS1003;21773;50.010;19.972;2022-10-26T14:06:30;4.00;4.00;4.00
35654;PMS1003;21773;50.010;19.972;2022-10-26T14:09:37;4.00;4.00;3.60
35654;PMS1003;21773;50.010;19.972;2022-10-26T14:12:42;3.00;3.00;3.00
35654;PMS1003;21773;50.010;19.972;2022-10-26T14:15:46;4.60;3.00;3.00
35654;PMS1003;21773;50.010;19.972;2022-10-26T14:18:49;2.00;2.00;2.00
35654;PMS1003;21773;50.010;19.972;2022-10-26T14:21:52;3.00;2.00;2.00
35654;PMS1003;21773;50.010;19.972;2022-10-26T14:24:57;4.00;3.00;3.00
35654;PMS1003;21773;50.010;19.972;2022-10-26T14:28:15;5.00;4.00;3.00
35654;PMS1003;21773;50.010;19.972;2022-10-26T14:31:24;3.00;3.00;2.20
35654;PMS1003;21773;50.010;19.972;2022-10-26T14:34:30;2.00;2.00;2.00
35654;PMS1003;21773;50.010;19.972;2022-10-26T14:37:35;4.00;3.60;3.00
35654;PMS1003;21773;50.010;19.972;2022-10-26T14:40:45;1.00;1.00;1.00
35654;PMS1003;21773;50.010;19.972;2022-10-26T14:43:52;2.00;2.00;2.00
35654;PMS1003;21773;50.010;19.972;2022-10-26T14:46:58;7.00;6.00;6.00
35654;PMS1003;21773;50.010;19.972;2022-10-26T14:50:02;8.00;7.00;6.00
35654;PMS1003;21773;50.010;19.972;2022-10-26T14:53:11;7.00;5.00;5.00
35654;PMS1003;21773;50.010;19.972;2022-10-26T14:56:19;13.00;12.75;11.00
35654;PMS1003;21773;50.010;19.972;2022-10-26T14:59:27;5.00;5.00;4.20
35654;PMS1003;21773;50.010;19.972;2022-10-26T15:02:31;4.00;4.00;4.00
35654;PMS1003;21773;50.010;19.972;2022-10-26T15:05:37;5.60;5.00;4.00
35654;PMS1003;21773;50.010;19.972;2022-10-26T15:08:40;5.20;4.60;4.00
35654;PMS1003;21773;50.010;19.972;2022-10-26T15:11:57;3.50;3.50;3.00
35654;PMS1003;21773;50.010;19.972;2022-10-26T15:15:17;6.00;5.00;5.00
35654;PMS1003;21773;50.010;19.972;2022-10-26T15:18:28;5.00;5.00;5.00
35654;PMS1003;21773;50.010;19.972;2022-10-26T15:21:35;4.00;3.80;3.00
35654;PMS1003;21773;50.010;19.972;2022-10-26T15:24:41;4.00;4.00;4.00
35654;PMS1003;21773;50.010;19.972;2022-10-26T15:27:45;6.20;6.00;5.20
35654;PMS1003;21773;50.010;19.972;2022-10-26T15:30:58;6.00;6.00;6.00
35654;PMS1003;21773;50.010;19.972;2022-10-26T15:34:11;6.00;5.00;5.00
35654;PMS1003;21773;50.010;19.972;2022-10-26T15:37:16;5.20;5.20;4.20
35654;PMS1003;21773;50.010;19.972;2022-10-26T15:40:20;6.00;6.00;5.25
35654;PMS1003;21773;50.010;19.972;2022-10-26T15:43:23;7.40;6.40;5.40
35654;PMS1003;21773;50.010;19.972;2022-10-26T15:46:29;6.75;5.75;5.00
35654;PMS1003;21773;50.010;19.972;2022-10-26T15:49:35;8.00;6.80;6.00
35654;PMS1003;21773;50.010;19.972;2022-10-26T15:52:38;7.00;7.00;5.00
35654;PMS1003;21773;50.010;19.972;2022-10-26T15:55:46;7.00;6.25;6.00
35654;PMS1003;21773;50.010;19.972;2022-10-26T15:58:49;16.50;16.00;14.00
35654;PMS1003;21773;50.010;19.972;2022-10-26T16:01:55;5.00;5.00;4.60
35654;PMS1003;21773;50.010;19.972;2022-10-26T16:04:58;7.00;6.40;5.40
35654;PMS1003;21773;50.010;19.972;2022-10-26T16:08:02;7.00;7.00;6.00
35654;PMS1003;21773;50.010;19.972;2022-10-26T16:11:06;9.00;8.00;6.60
35654;PMS1003;21773;50.010;19.972;2022-10-26T16:14:09;6.00;6.00;5.00
35654;PMS1003;21773;50.010;19.972;2022-10-26T16:17:15;8.33;7.00;6.33
35654;PMS1003;21773;50.010;19.972;2022-10-26T16:20:19;16.00;15.00;12.00
35654;PMS1003;21773;50.010;19.972;2022-10-26T16:23:24;22.00;19.00;16.67
35654;PMS1003;21773;50.010;19.972;2022-10-26T16:26:28;33.60;30.00;23.00
35654;PMS1003;21773;50.010;19.972;2022-10-26T16:29:31;43.20;35.80;27.60
35654;PMS1003;21773;50.010;19.972;2022-10-26T16:32:36;23.40;21.60;18.40
35654;PMS1003;21773;50.010;19.972;2022-10-26T16:35:39;15.50;14.00;12.00
35654;PMS1003;21773;50.010;19.972;2022-10-26T16:38:42;11.00;9.40;8.40
35654;PMS1003;21773;50.010;19.972;2022-10-26T16:41:47;15.00;13.00;11.00
35654;PMS1003;21773;50.010;19.972;2022-10-26T16:44:52;11.60;11.00;10.00
35654;PMS1003;21773;50.010;19.972;2022-10-26T16:48:03;10.00;9.40;8.00
35654;PMS1003;21773;50.010;19.972;2022-10-26T16:51:15;16.50;15.00;13.00
35654;PMS1003;21773;50.010;19.972;2022-10-26T16:54:20;12.25;12.25;10.00
35654;PMS1003;21773;50.010;19.972;2022-10-26T16:57:24;13.40;12.40;11.40
35654;PMS1003;21773;50.010;19.972;2022-10-26T17:00:28;8.80;8.20;7.00
35654;PMS1003;21773;50.010;19.972;2022-10-26T17:03:32;9.00;8.00;8.00
35654;PMS1003;21773;50.010;19.972;2022-10-26T17:06:36;8.00;8.00;7.00
35654;PMS1003;21773;50.010;19.972;2022-10-26T17:09:39;7.60;6.60;6.60
35654;PMS1003;21773;50.010;19.972;2022-10-26T17:12:43;10.00;8.20;7.20
35654;PMS1003;21773;50.010;19.972;2022-10-26T17:15:46;15.00;14.00;11.25
35654;PMS1003;21773;50.010;19.972;2022-10-26T17:18:52;10.00;9.00;8.00
35654;PMS1003;21773;50.010;19.972;2022-10-26T17:21:56;7.20;6.20;5.60
35654;PMS1003;21773;50.010;19.972;2022-10-26T17:24:59;6.00;5.20;5.00
35654;PMS1003;21773;50.010;19.972;2022-10-26T17:28:03;6.00;6.00;6.00
35654;PMS1003;21773;50.010;19.972;2022-10-26T17:31:07;5.40;5.40;4.40
35654;PMS1003;21773;50.010;19.972;2022-10-26T17:34:13;7.00;6.40;6.00
35654;PMS1003;21773;50.010;19.972;2022-10-26T17:37:16;8.40;7.40;7.00
35654;PMS1003;21773;50.010;19.972;2022-10-26T17:40:20;5.00;5.00;4.50
35654;PMS1003;21773;50.010;19.972;2022-10-26T17:43:23;7.00;6.00;6.00
35654;PMS1003;21773;50.010;19.972;2022-10-26T17:46:27;7.00;7.00;6.00
35654;PMS1003;21773;50.010;19.972;2022-10-26T17:49:32;8.00;7.00;7.00
35654;PMS1003;21773;50.010;19.972;2022-10-26T17:52:36;6.00;6.00;5.60
35654;PMS1003;21773;50.010;19.972;2022-10-26T17:55:40;5.75;5.00;4.25
35654;PMS1003;21773;50.010;19.972;2022-10-26T17:58:44;7.80;7.00;6.00
35654;PMS1003;21773;50.010;19.972;2022-10-26T18:01:47;8.00;8.00;7.00
35654;PMS1003;21773;50.010;19.972;2022-10-26T18:04:52;8.00;7.40;6.40
35654;PMS1003;21773;50.010;19.972;2022-10-26T18:07:55;11.00;10.00;9.00
35654;PMS1003;21773;50.010;19.972;2022-10-26T18:10:59;9.67;8.67;8.00